createdAt,value
2024-03-15T00:00:16.806Z,7.39
2024-03-15T00:00:49.095Z,7.33
2024-03-15T00:01:21.516Z,7.30
2024-03-15T00:01:53.638Z,7.28
2024-03-15T00:02:26.067Z,7.26
2024-03-15T00:02:58.469Z,7.23
2024-03-15T00:03:30.779Z,7.19
2024-03-15T00:04:02.977Z,7.18
2024-03-15T00:04:35.119Z,7.16
2024-03-15T00:05:07.535Z,7.13
2024-03-15T00:05:39.632Z,7.09
2024-03-15T00:06:11.746Z,7.10
2024-03-15T00:06:43.962Z,7.09
2024-03-15T00:07:16.182Z,7.07
2024-03-15T00:07:48.345Z,7.06
2024-03-15T00:08:20.501Z,7.04
2024-03-15T00:08:52.662Z,7.02
2024-03-15T00:09:24.778Z,6.98
2024-03-15T00:09:56.875Z,6.96
2024-03-15T00:10:28.952Z,6.91
2024-03-15T00:11:01.097Z,6.89
2024-03-15T00:11:33.281Z,6.87
2024-03-15T00:12:05.593Z,6.88
2024-03-15T00:12:37.828Z,6.86
2024-03-15T00:13:10.052Z,6.88
2024-03-15T00:13:42.272Z,6.87
2024-03-15T00:14:14.418Z,6.85
2024-03-15T00:14:46.560Z,6.84
2024-03-15T00:15:18.673Z,6.85
2024-03-15T00:15:50.922Z,6.83
2024-03-15T00:16:23.082Z,6.82
2024-03-15T00:16:55.190Z,6.81
2024-03-15T00:17:27.296Z,6.79
2024-03-15T00:17:59.563Z,6.80
2024-03-15T00:18:31.842Z,6.76
2024-03-15T00:19:04.360Z,6.75
2024-03-15T00:19:36.616Z,6.71
2024-03-15T00:20:09.299Z,6.70
2024-03-15T00:20:41.652Z,6.67
2024-03-15T00:21:16.347Z,6.64
2024-03-15T00:21:48.633Z,6.62
2024-03-15T00:22:20.798Z,6.62
2024-03-15T00:22:52.878Z,6.61
2024-03-15T00:23:24.996Z,6.54
2024-03-15T00:23:57.113Z,6.54
2024-03-15T00:24:29.272Z,6.53
2024-03-15T00:25:01.453Z,6.53
2024-03-15T00:25:33.717Z,6.51
2024-03-15T00:26:05.827Z,6.46
2024-03-15T00:26:37.986Z,6.43
2024-03-15T00:27:10.340Z,6.43
2024-03-15T00:27:42.520Z,6.42
2024-03-15T00:28:14.689Z,6.43
2024-03-15T00:28:46.825Z,6.42
2024-03-15T00:29:19.010Z,6.40
2024-03-15T00:29:51.199Z,6.39
2024-03-15T00:30:23.497Z,6.40
2024-03-15T00:30:55.617Z,6.38
2024-03-15T00:31:27.716Z,6.34
2024-03-15T00:31:59.945Z,6.32
2024-03-15T00:32:32.097Z,6.30
2024-03-15T00:33:04.622Z,6.29
2024-03-15T00:33:36.878Z,6.27
2024-03-15T00:34:09.056Z,6.24
2024-03-15T00:34:41.509Z,6.23
2024-03-15T00:35:13.697Z,6.20
2024-03-15T00:35:45.810Z,6.20
2024-03-15T00:36:18.523Z,6.18
2024-03-15T00:36:50.697Z,6.18
2024-03-15T00:37:22.979Z,6.19
2024-03-15T00:37:55.120Z,6.16
2024-03-15T00:38:27.234Z,6.12
2024-03-15T00:38:59.455Z,6.08
2024-03-15T00:39:31.556Z,6.07
2024-03-15T00:40:03.936Z,6.05
2024-03-15T00:40:36.225Z,6.03
2024-03-15T00:41:08.337Z,6.01
2024-03-15T00:41:40.556Z,5.99
2024-03-15T00:42:12.715Z,5.98
2024-03-15T00:42:44.857Z,5.96
2024-03-15T00:43:17.220Z,5.93
2024-03-15T00:43:49.586Z,5.90
2024-03-15T00:44:21.680Z,5.89
2024-03-15T00:44:53.898Z,5.89
2024-03-15T00:45:26.065Z,5.84
2024-03-15T00:45:58.332Z,5.82
2024-03-15T00:46:30.538Z,5.81
2024-03-15T00:47:02.643Z,5.80
2024-03-15T00:47:34.759Z,5.80
2024-03-15T00:48:07.108Z,5.78
2024-03-15T00:48:39.287Z,5.75
2024-03-15T00:49:11.505Z,5.72
2024-03-15T00:49:43.667Z,5.67
2024-03-15T00:50:16.042Z,5.64
2024-03-15T00:50:48.253Z,5.62
2024-03-15T00:51:20.424Z,5.61
2024-03-15T00:51:52.634Z,5.61
2024-03-15T00:52:24.795Z,5.59
2024-03-15T00:52:56.903Z,5.59
2024-03-15T00:53:29.034Z,5.57
2024-03-15T00:54:01.266Z,5.57
2024-03-15T00:54:33.478Z,5.53
2024-03-15T00:55:06.072Z,5.53
2024-03-15T00:55:38.435Z,5.51
2024-03-15T00:56:10.545Z,5.52
2024-03-15T00:56:42.712Z,5.53
2024-03-15T00:57:14.844Z,5.52
2024-03-15T00:57:47.030Z,5.51
2024-03-15T00:58:19.164Z,5.48
2024-03-15T00:58:51.290Z,5.47
2024-03-15T00:59:23.376Z,5.44
2024-03-15T00:59:55.476Z,5.44
2024-03-15T01:00:27.615Z,5.43
2024-03-15T01:00:59.928Z,5.41
2024-03-15T01:01:32.385Z,5.40
2024-03-15T01:02:04.658Z,5.38
2024-03-15T01:02:36.822Z,5.35
2024-03-15T01:03:08.984Z,5.31
2024-03-15T01:03:41.331Z,5.26
2024-03-15T01:04:13.615Z,5.29
2024-03-15T01:04:45.727Z,5.25
2024-03-15T01:05:17.881Z,5.23
2024-03-15T01:05:50.028Z,5.18
2024-03-15T01:06:22.302Z,5.18
2024-03-15T01:06:54.512Z,5.17
2024-03-15T01:07:26.735Z,5.11
2024-03-15T01:07:58.858Z,5.09
2024-03-15T01:08:30.980Z,5.06
2024-03-15T01:09:03.201Z,5.04
2024-03-15T01:09:35.432Z,5.00
2024-03-15T01:10:07.674Z,4.99
2024-03-15T01:10:39.819Z,4.98
2024-03-15T01:11:12.764Z,4.97
2024-03-15T01:11:44.885Z,4.95
2024-03-15T01:12:17.256Z,4.95
2024-03-15T01:12:49.570Z,4.96
2024-03-15T01:13:21.777Z,4.98
2024-03-15T01:13:53.870Z,4.97
2024-03-15T01:14:26.014Z,4.96
2024-03-15T01:14:58.235Z,4.95
2024-03-15T01:15:30.383Z,4.95
2024-03-15T01:16:02.531Z,4.95
2024-03-15T01:16:34.658Z,4.96
2024-03-15T01:17:06.749Z,4.93
2024-03-15T01:17:39.016Z,4.92
2024-03-15T01:18:11.289Z,4.89
2024-03-15T01:18:43.495Z,4.91
2024-03-15T01:19:15.669Z,4.91
2024-03-15T01:19:47.810Z,4.90
2024-03-15T01:20:19.954Z,4.88
2024-03-15T01:20:52.028Z,4.87
2024-03-15T01:21:24.158Z,4.83
2024-03-15T01:21:56.282Z,4.83
2024-03-15T01:22:28.437Z,4.82
2024-03-15T01:23:00.547Z,4.81
2024-03-15T01:23:32.721Z,4.81
2024-03-15T01:24:05.149Z,4.81
2024-03-15T01:24:37.334Z,4.80
2024-03-15T01:25:09.419Z,4.83
2024-03-15T01:25:41.648Z,4.84
2024-03-15T01:26:13.769Z,4.84
2024-03-15T01:26:45.874Z,4.86
2024-03-15T01:27:17.988Z,4.85
2024-03-15T01:27:50.156Z,4.85
2024-03-15T01:28:22.350Z,4.85
2024-03-15T01:28:54.525Z,4.83
2024-03-15T01:29:26.636Z,4.81
2024-03-15T01:29:58.751Z,4.81
2024-03-15T01:30:30.887Z,4.82
2024-03-15T01:31:03.664Z,4.81
2024-03-15T01:31:35.839Z,4.77
2024-03-15T01:32:07.921Z,4.77
2024-03-15T01:32:40.061Z,4.75
2024-03-15T01:33:12.454Z,4.72
2024-03-15T01:33:44.764Z,4.71
2024-03-15T01:34:16.944Z,4.69
2024-03-15T01:34:49.093Z,4.68
2024-03-15T01:35:21.265Z,4.69
2024-03-15T01:35:53.402Z,4.69
2024-03-15T01:36:25.548Z,4.68
2024-03-15T01:36:57.805Z,4.67
2024-03-15T01:37:29.968Z,4.65
2024-03-15T01:38:02.167Z,4.61
2024-03-15T01:38:34.278Z,4.63
2024-03-15T01:39:06.559Z,4.65
2024-03-15T01:39:41.855Z,4.65
2024-03-15T01:40:13.986Z,4.64
2024-03-15T01:40:46.094Z,4.62
2024-03-15T01:41:18.270Z,4.63
2024-03-15T01:41:50.410Z,4.62
2024-03-15T01:42:22.863Z,4.62
2024-03-15T01:42:55.019Z,4.62
2024-03-15T01:43:27.199Z,4.61
2024-03-15T01:43:59.371Z,4.59
2024-03-15T01:44:39.002Z,4.58
2024-03-15T01:45:11.457Z,4.59
2024-03-15T01:45:43.629Z,4.59
2024-03-15T01:46:15.792Z,4.55
2024-03-15T01:46:48.288Z,4.54
2024-03-15T01:47:20.453Z,4.52
2024-03-15T01:47:52.587Z,4.53
2024-03-15T01:48:24.807Z,4.52
2024-03-15T01:48:57.156Z,4.52
2024-03-15T01:49:29.351Z,4.53
2024-03-15T01:50:01.650Z,4.50
2024-03-15T01:50:33.862Z,4.49
2024-03-15T01:51:06.016Z,4.47
2024-03-15T01:51:38.414Z,4.48
2024-03-15T01:52:10.608Z,4.46
2024-03-15T01:52:42.735Z,4.46
2024-03-15T01:53:14.996Z,4.46
2024-03-15T01:53:47.158Z,4.47
2024-03-15T01:54:19.620Z,4.45
2024-03-15T01:54:51.793Z,4.46
2024-03-15T01:55:23.934Z,4.44
2024-03-15T01:55:56.021Z,4.38
2024-03-15T01:56:28.154Z,4.39
2024-03-15T01:57:00.232Z,4.38
2024-03-15T01:57:32.461Z,4.39
2024-03-15T01:58:04.717Z,4.42
2024-03-15T01:58:36.816Z,4.43
2024-03-15T01:59:08.966Z,4.42
2024-03-15T01:59:41.042Z,4.42
2024-03-15T02:00:13.463Z,4.41
2024-03-15T02:00:45.682Z,4.41
2024-03-15T02:01:17.870Z,4.41
2024-03-15T02:01:50.171Z,4.45
2024-03-15T02:02:22.274Z,4.45
2024-03-15T02:02:54.417Z,4.44
2024-03-15T02:03:26.535Z,4.44
2024-03-15T02:03:58.664Z,4.42
2024-03-15T02:04:30.811Z,4.41
2024-03-15T02:05:02.895Z,4.43
2024-03-15T02:05:35.024Z,4.39
2024-03-15T02:06:07.314Z,4.36
2024-03-15T02:06:39.646Z,4.35
2024-03-15T02:07:11.873Z,4.32
2024-03-15T02:07:43.959Z,4.33
2024-03-15T02:08:17.862Z,4.31
2024-03-15T02:08:49.918Z,4.31
2024-03-15T02:09:22.127Z,4.29
2024-03-15T02:09:54.795Z,4.28
2024-03-15T02:10:26.982Z,4.29
2024-03-15T02:10:59.109Z,4.31
2024-03-15T02:11:31.257Z,4.33
2024-03-15T02:12:03.428Z,4.36
2024-03-15T02:12:35.641Z,4.38
2024-03-15T02:13:07.803Z,4.35
2024-03-15T02:13:39.901Z,4.32
2024-03-15T02:14:11.981Z,4.30
2024-03-15T02:14:44.283Z,4.30
2024-03-15T02:15:16.613Z,4.29
2024-03-15T02:15:48.915Z,4.31
2024-03-15T02:16:21.221Z,4.32
2024-03-15T02:16:53.321Z,4.30
2024-03-15T02:17:25.434Z,4.31
2024-03-15T02:17:57.617Z,4.29
2024-03-15T02:18:29.822Z,4.29
2024-03-15T02:19:02.053Z,4.25
2024-03-15T02:19:34.196Z,4.24
2024-03-15T02:20:07.067Z,4.24
2024-03-15T02:20:39.320Z,4.25
2024-03-15T02:21:11.499Z,4.23
2024-03-15T02:21:43.797Z,4.21
2024-03-15T02:22:15.937Z,4.21
2024-03-15T02:22:48.072Z,4.19
2024-03-15T02:23:20.156Z,4.21
2024-03-15T02:23:52.363Z,4.22
2024-03-15T02:24:24.523Z,4.16
2024-03-15T02:24:56.690Z,4.18
2024-03-15T02:25:28.913Z,4.17
2024-03-15T02:26:01.050Z,4.16
2024-03-15T02:26:33.179Z,4.18
2024-03-15T02:27:05.428Z,4.15
2024-03-15T02:27:37.641Z,4.13
2024-03-15T02:28:09.956Z,4.12
2024-03-15T02:28:42.111Z,4.11
2024-03-15T02:29:14.308Z,4.11
2024-03-15T02:29:46.472Z,4.10
2024-03-15T02:30:18.599Z,4.10
2024-03-15T02:30:50.922Z,4.12
2024-03-15T02:31:23.083Z,4.12
2024-03-15T02:31:55.206Z,4.08
2024-03-15T02:32:27.360Z,4.08
2024-03-15T02:32:59.614Z,4.10
2024-03-15T02:33:31.853Z,4.08
2024-03-15T02:34:04.085Z,4.09
2024-03-15T02:34:36.233Z,4.11
2024-03-15T02:35:18.953Z,4.09
2024-03-15T02:35:56.595Z,4.10
2024-03-15T02:36:28.688Z,4.12
2024-03-15T02:37:00.853Z,4.12
2024-03-15T02:37:33.086Z,4.11
2024-03-15T02:38:05.317Z,4.11
2024-03-15T02:38:37.545Z,4.10
2024-03-15T02:39:09.830Z,4.12
2024-03-15T02:39:42.053Z,4.09
2024-03-15T02:40:14.231Z,4.09
2024-03-15T02:40:46.673Z,4.09
2024-03-15T02:41:18.811Z,4.10
2024-03-15T02:41:50.971Z,4.07
2024-03-15T02:42:23.242Z,4.04
2024-03-15T02:42:55.536Z,4.05
2024-03-15T02:43:27.697Z,4.04
2024-03-15T02:43:59.838Z,4.05
2024-03-15T02:44:31.940Z,4.05
2024-03-15T02:45:04.322Z,4.05
2024-03-15T02:45:36.987Z,4.02
2024-03-15T02:46:09.132Z,4.04
2024-03-15T02:46:41.231Z,4.01
2024-03-15T02:47:13.359Z,4.02
2024-03-15T02:47:45.593Z,4.05
2024-03-15T02:48:17.860Z,4.05
2024-03-15T02:48:50.048Z,4.01
2024-03-15T02:49:22.235Z,4.01
2024-03-15T02:49:54.318Z,4.00
2024-03-15T02:50:26.455Z,3.98
2024-03-15T02:50:58.582Z,4.01
2024-03-15T02:51:30.805Z,4.03
2024-03-15T02:52:02.963Z,4.03
2024-03-15T02:52:35.296Z,4.01
2024-03-15T02:53:07.374Z,4.01
2024-03-15T02:53:39.475Z,4.04
2024-03-15T02:54:14.641Z,4.03
2024-03-15T02:54:47.308Z,4.02
2024-03-15T02:55:19.409Z,4.00
2024-03-15T02:55:51.698Z,4.00
2024-03-15T02:56:23.815Z,4.00
2024-03-15T02:56:55.964Z,3.99
2024-03-15T02:57:28.169Z,4.00
2024-03-15T02:58:00.487Z,3.99
2024-03-15T02:58:32.763Z,3.98
2024-03-15T02:59:05.043Z,3.95
2024-03-15T02:59:37.141Z,3.93
2024-03-15T03:00:09.826Z,3.92
2024-03-15T03:00:42.062Z,3.91
2024-03-15T03:01:14.348Z,3.90
2024-03-15T03:01:46.524Z,3.90
2024-03-15T03:02:18.812Z,3.89
2024-03-15T03:02:50.989Z,3.90
2024-03-15T03:03:23.165Z,3.88
2024-03-15T03:03:55.904Z,3.85
2024-03-15T03:04:28.343Z,3.86
2024-03-15T03:05:00.481Z,3.81
2024-03-15T03:05:32.717Z,3.78
2024-03-15T03:06:06.343Z,3.80
2024-03-15T03:06:38.700Z,3.79
2024-03-15T03:07:10.879Z,3.79
2024-03-15T03:07:43.037Z,3.80
2024-03-15T03:08:15.166Z,3.74
2024-03-15T03:08:47.563Z,3.70
2024-03-15T03:09:19.832Z,3.71
2024-03-15T03:09:52.124Z,3.72
2024-03-15T03:10:24.239Z,3.77
2024-03-15T03:10:56.350Z,3.75
2024-03-15T03:11:28.514Z,3.75
2024-03-15T03:12:00.955Z,3.74
2024-03-15T03:12:33.175Z,3.71
2024-03-15T03:13:05.583Z,3.67
2024-03-15T03:13:37.931Z,3.63
2024-03-15T03:14:10.061Z,3.67
2024-03-15T03:14:42.559Z,3.63
2024-03-15T03:15:17.632Z,3.64
2024-03-15T03:15:50.557Z,3.64
2024-03-15T03:16:22.714Z,3.60
2024-03-15T03:16:55.031Z,3.54
2024-03-15T03:17:27.135Z,3.61
2024-03-15T03:17:59.381Z,3.60
2024-03-15T03:18:31.639Z,3.60
2024-03-15T03:19:03.905Z,3.59
2024-03-15T03:19:36.076Z,3.60
2024-03-15T03:20:08.753Z,3.61
2024-03-15T03:20:40.872Z,3.59
2024-03-15T03:21:13.121Z,3.58
2024-03-15T03:21:45.316Z,3.56
2024-03-15T03:22:17.387Z,3.52
2024-03-15T03:22:49.485Z,3.52
2024-03-15T03:23:21.605Z,3.50
2024-03-15T03:23:53.698Z,3.49
2024-03-15T03:24:25.840Z,3.43
2024-03-15T03:24:58.007Z,3.44
2024-03-15T03:25:30.193Z,3.46
2024-03-15T03:26:02.353Z,3.44
2024-03-15T03:26:34.473Z,3.41
2024-03-15T03:27:06.583Z,3.39
2024-03-15T03:27:38.760Z,3.36
2024-03-15T03:28:10.896Z,3.36
2024-03-15T03:28:43.065Z,3.39
2024-03-15T03:29:15.342Z,3.38
2024-03-15T03:29:47.460Z,3.37
2024-03-15T03:30:19.644Z,3.37
2024-03-15T03:30:51.846Z,3.35
2024-03-15T03:31:23.986Z,3.36
2024-03-15T03:31:56.081Z,3.34
2024-03-15T03:32:28.332Z,3.33
2024-03-15T03:33:00.603Z,3.34
2024-03-15T03:33:32.811Z,3.31
2024-03-15T03:34:04.930Z,3.30
2024-03-15T03:34:37.037Z,3.33
2024-03-15T03:35:09.124Z,3.31
2024-03-15T03:35:41.366Z,3.27
2024-03-15T03:36:13.608Z,3.25
2024-03-15T03:36:45.799Z,3.25
2024-03-15T03:37:18.033Z,3.23
2024-03-15T03:37:50.103Z,3.25
2024-03-15T03:38:22.221Z,3.24
2024-03-15T03:38:54.357Z,3.21
2024-03-15T03:39:26.556Z,3.23
2024-03-15T03:39:58.747Z,3.22
2024-03-15T03:40:31.064Z,3.20
2024-03-15T03:41:03.226Z,3.19
2024-03-15T03:41:35.301Z,3.20
2024-03-15T03:42:07.444Z,3.19
2024-03-15T03:42:39.744Z,3.15
2024-03-15T03:43:11.940Z,3.14
2024-03-15T03:43:44.012Z,3.13
2024-03-15T03:44:16.110Z,3.16
2024-03-15T03:44:48.299Z,3.16
2024-03-15T03:45:20.673Z,3.12
2024-03-15T03:45:53.018Z,3.12
2024-03-15T03:46:25.274Z,3.13
2024-03-15T03:46:57.391Z,3.09
2024-03-15T03:47:29.518Z,3.06
2024-03-15T03:48:01.709Z,3.10
2024-03-15T03:48:34.090Z,3.11
2024-03-15T03:49:06.216Z,3.12
2024-03-15T03:49:38.301Z,3.07
2024-03-15T03:50:10.817Z,3.00
2024-03-15T03:50:42.883Z,2.98
2024-03-15T03:51:15.226Z,2.99
2024-03-15T03:51:47.723Z,2.96
2024-03-15T03:52:19.982Z,2.95
2024-03-15T03:52:52.060Z,2.94
2024-03-15T03:53:24.159Z,2.90
2024-03-15T03:53:56.304Z,2.89
2024-03-15T03:54:28.477Z,2.93
2024-03-15T03:55:00.626Z,2.91
2024-03-15T03:55:32.831Z,2.92
2024-03-15T03:56:05.036Z,2.91
2024-03-15T03:56:38.899Z,2.86
2024-03-15T03:57:19.783Z,2.81
2024-03-15T03:57:51.948Z,2.78
2024-03-15T03:58:24.119Z,2.78
2024-03-15T03:58:56.283Z,2.78
2024-03-15T03:59:28.481Z,2.75
2024-03-15T04:00:00.570Z,2.77
2024-03-15T04:00:32.891Z,2.77
2024-03-15T04:01:05.223Z,2.78
2024-03-15T04:01:37.427Z,2.76
2024-03-15T04:02:09.593Z,2.73
2024-03-15T04:02:44.266Z,2.71
2024-03-15T04:03:16.551Z,2.69
2024-03-15T04:03:48.715Z,2.69
2024-03-15T04:04:20.813Z,2.71
2024-03-15T04:04:53.050Z,2.70
2024-03-15T04:05:25.132Z,2.67
2024-03-15T04:05:57.249Z,2.67
2024-03-15T04:06:29.454Z,2.68
2024-03-15T04:07:01.658Z,2.67
2024-03-15T04:07:33.903Z,2.66
2024-03-15T04:08:06.095Z,2.66
2024-03-15T04:08:38.206Z,2.67
2024-03-15T04:09:10.354Z,2.66
2024-03-15T04:09:42.542Z,2.69
2024-03-15T04:10:15.071Z,2.66
2024-03-15T04:10:47.282Z,2.64
2024-03-15T04:11:19.420Z,2.67
2024-03-15T04:11:51.580Z,2.67
2024-03-15T04:12:23.712Z,2.69
2024-03-15T04:12:55.842Z,2.65
2024-03-15T04:13:28.076Z,2.60
2024-03-15T04:14:00.198Z,2.63
2024-03-15T04:14:32.534Z,2.65
2024-03-15T04:15:16.113Z,2.63
2024-03-15T04:15:57.287Z,2.60
2024-03-15T04:16:29.459Z,2.60
2024-03-15T04:17:01.567Z,2.63
2024-03-15T04:17:33.734Z,2.60
2024-03-15T04:18:06.079Z,2.60
2024-03-15T04:18:38.430Z,2.60
2024-03-15T04:19:10.603Z,2.62
2024-03-15T04:19:43.084Z,2.63
2024-03-15T04:20:15.282Z,2.65
2024-03-15T04:20:47.718Z,2.65
2024-03-15T04:21:20.006Z,2.64
2024-03-15T04:21:52.211Z,2.61
2024-03-15T04:22:24.404Z,2.61
2024-03-15T04:22:56.568Z,2.61
2024-03-15T04:23:28.656Z,2.60
2024-03-15T04:24:00.842Z,2.58
2024-03-15T04:24:33.021Z,2.57
2024-03-15T04:25:05.227Z,2.57
2024-03-15T04:25:37.342Z,2.57
2024-03-15T04:26:09.544Z,2.53
2024-03-15T04:26:41.724Z,2.55
2024-03-15T04:27:13.953Z,2.56
2024-03-15T04:27:46.180Z,2.58
2024-03-15T04:28:18.278Z,2.56
2024-03-15T04:28:50.425Z,2.58
2024-03-15T04:29:22.512Z,2.55
2024-03-15T04:29:54.621Z,2.54
2024-03-15T04:30:27.462Z,2.56
2024-03-15T04:30:59.576Z,2.55
2024-03-15T04:31:31.852Z,2.56
2024-03-15T04:32:04.057Z,2.57
2024-03-15T04:32:36.228Z,2.53
2024-03-15T04:33:08.499Z,2.50
2024-03-15T04:33:40.734Z,2.50
2024-03-15T04:34:12.937Z,2.49
2024-03-15T04:34:45.065Z,2.48
2024-03-15T04:35:17.315Z,2.48
2024-03-15T04:35:49.620Z,2.48
2024-03-15T04:36:21.792Z,2.50
2024-03-15T04:36:53.951Z,2.53
2024-03-15T04:37:26.104Z,2.53
2024-03-15T04:37:58.178Z,2.53
2024-03-15T04:38:30.323Z,2.52
2024-03-15T04:39:02.444Z,2.49
2024-03-15T04:39:34.581Z,2.48
2024-03-15T04:40:07.183Z,2.48
2024-03-15T04:40:39.370Z,2.48
2024-03-15T04:41:11.577Z,2.46
2024-03-15T04:41:43.696Z,2.47
2024-03-15T04:42:15.804Z,2.48
2024-03-15T04:42:48.278Z,2.44
2024-03-15T04:43:20.528Z,2.46
2024-03-15T04:43:52.636Z,2.44
2024-03-15T04:44:24.713Z,2.43
2024-03-15T04:44:56.822Z,2.41
2024-03-15T04:45:29.056Z,2.42
2024-03-15T04:46:01.246Z,2.34
2024-03-15T04:46:33.431Z,2.31
2024-03-15T04:47:05.552Z,2.33
2024-03-15T04:47:37.764Z,2.32
2024-03-15T04:48:10.069Z,2.26
2024-03-15T04:48:42.332Z,2.27
2024-03-15T04:49:14.443Z,2.30
2024-03-15T04:49:46.549Z,2.30
2024-03-15T04:50:18.638Z,2.34
2024-03-15T04:50:51.077Z,2.34
2024-03-15T04:51:23.303Z,2.27
2024-03-15T04:51:55.751Z,2.26
2024-03-15T04:52:27.993Z,2.33
2024-03-15T04:53:00.132Z,2.35
2024-03-15T04:53:32.256Z,2.36
2024-03-15T04:54:04.402Z,2.38
2024-03-15T04:54:36.766Z,2.39
2024-03-15T04:55:09.093Z,2.41
2024-03-15T04:55:41.537Z,2.40
2024-03-15T04:56:13.867Z,2.41
2024-03-15T04:56:46.129Z,2.42
2024-03-15T04:57:18.507Z,2.40
2024-03-15T04:57:51.079Z,2.38
2024-03-15T04:58:23.343Z,2.34
2024-03-15T04:58:55.452Z,2.32
2024-03-15T04:59:27.572Z,2.31
2024-03-15T04:59:59.670Z,2.34
2024-03-15T05:00:31.933Z,2.36
2024-03-15T05:01:04.460Z,2.33
2024-03-15T05:01:36.770Z,2.31
2024-03-15T05:02:09.019Z,2.32
2024-03-15T05:02:41.125Z,2.29
2024-03-15T05:03:13.370Z,2.32
2024-03-15T05:03:45.626Z,2.32
2024-03-15T05:04:17.752Z,2.30
2024-03-15T05:04:49.944Z,2.35
2024-03-15T05:05:22.053Z,2.33
2024-03-15T05:05:54.225Z,2.34
2024-03-15T05:06:30.542Z,2.31
2024-03-15T05:07:03.533Z,2.31
2024-03-15T05:07:35.685Z,2.32
2024-03-15T05:08:07.906Z,2.32
2024-03-15T05:08:40.108Z,2.32
2024-03-15T05:09:12.518Z,2.33
2024-03-15T05:09:44.825Z,2.34
2024-03-15T05:10:17.843Z,2.36
2024-03-15T05:10:50.638Z,2.37
2024-03-15T05:11:22.960Z,2.37
2024-03-15T05:11:55.162Z,2.34
2024-03-15T05:12:27.342Z,2.35
2024-03-15T05:12:59.455Z,2.36
2024-03-15T05:13:31.584Z,2.37
2024-03-15T05:14:03.710Z,2.35
2024-03-15T05:14:35.854Z,2.33
2024-03-15T05:15:08.195Z,2.33
2024-03-15T05:15:42.261Z,2.32
2024-03-15T05:16:14.701Z,2.36
2024-03-15T05:16:54.386Z,2.34
2024-03-15T05:17:26.585Z,2.35
2024-03-15T05:17:58.792Z,2.35
2024-03-15T05:18:31.045Z,2.34
2024-03-15T05:19:03.225Z,2.36
2024-03-15T05:19:39.440Z,2.38
2024-03-15T05:20:12.311Z,2.38
2024-03-15T05:20:44.454Z,2.38
2024-03-15T05:21:16.745Z,2.36
2024-03-15T05:21:48.970Z,2.38
2024-03-15T05:22:21.071Z,2.35
2024-03-15T05:22:53.175Z,2.35
2024-03-15T05:23:25.307Z,2.40
2024-03-15T05:23:57.422Z,2.38
2024-03-15T05:24:32.841Z,2.43
2024-03-15T05:25:05.301Z,2.44
2024-03-15T05:25:37.421Z,2.46
2024-03-15T05:26:09.578Z,2.47
2024-03-15T05:26:41.679Z,2.46
2024-03-15T05:27:13.884Z,2.45
2024-03-15T05:27:46.092Z,2.48
2024-03-15T05:28:18.271Z,2.51
2024-03-15T05:28:50.368Z,2.49
2024-03-15T05:29:22.662Z,2.51
2024-03-15T05:29:54.824Z,2.53
2024-03-15T05:30:27.058Z,2.52
2024-03-15T05:30:59.330Z,2.54
2024-03-15T05:31:31.445Z,2.55
2024-03-15T05:32:03.651Z,2.58
2024-03-15T05:32:35.780Z,2.55
2024-03-15T05:33:07.936Z,2.59
2024-03-15T05:33:40.152Z,2.61
2024-03-15T05:34:12.302Z,2.63
2024-03-15T05:34:44.453Z,2.63
2024-03-15T05:35:16.597Z,2.67
2024-03-15T05:35:48.736Z,2.68
2024-03-15T05:36:20.997Z,2.68
2024-03-15T05:36:53.317Z,2.70
2024-03-15T05:37:25.482Z,2.71
2024-03-15T05:37:57.565Z,2.69
2024-03-15T05:38:29.700Z,2.72
2024-03-15T05:39:01.870Z,2.75
2024-03-15T05:39:33.991Z,2.69
2024-03-15T05:40:06.777Z,2.78
2024-03-15T05:40:38.898Z,2.80
2024-03-15T05:41:10.989Z,2.79
2024-03-15T05:41:43.089Z,2.76
2024-03-15T05:42:15.310Z,2.80
2024-03-15T05:42:47.673Z,2.86
2024-03-15T05:43:19.871Z,2.96
2024-03-15T05:43:51.998Z,2.98
2024-03-15T05:44:24.134Z,3.01
2024-03-15T05:44:56.297Z,3.02
2024-03-15T05:45:28.474Z,3.06
2024-03-15T05:46:00.848Z,3.14
2024-03-15T05:46:33.160Z,3.21
2024-03-15T05:47:05.411Z,3.25
2024-03-15T05:47:37.537Z,3.33
2024-03-15T05:48:09.778Z,3.38
2024-03-15T05:48:42.283Z,3.41
2024-03-15T05:49:14.431Z,3.45
2024-03-15T05:49:46.516Z,3.50
2024-03-15T05:50:18.629Z,3.51
2024-03-15T05:50:50.806Z,3.50
2024-03-15T05:51:22.924Z,3.57
2024-03-15T05:51:55.155Z,3.60
2024-03-15T05:52:27.327Z,3.66
2024-03-15T05:52:59.536Z,3.71
2024-03-15T05:53:31.647Z,3.72
2024-03-15T05:54:03.841Z,3.72
2024-03-15T05:54:35.933Z,3.75
2024-03-15T05:55:08.315Z,3.81
2024-03-15T05:55:40.471Z,3.87
2024-03-15T05:56:12.634Z,3.89
2024-03-15T05:56:44.721Z,3.95
2024-03-15T05:57:16.898Z,4.00
2024-03-15T05:57:49.155Z,4.07
2024-03-15T05:58:21.382Z,4.08
2024-03-15T05:58:53.492Z,4.14
2024-03-15T05:59:25.616Z,4.28
2024-03-15T05:59:57.817Z,4.36
2024-03-15T06:00:29.968Z,4.30
2024-03-15T06:01:02.287Z,4.40
2024-03-15T06:01:34.638Z,4.49
2024-03-15T06:02:06.891Z,4.52
2024-03-15T06:02:39.028Z,4.54
2024-03-15T06:03:11.195Z,4.52
2024-03-15T06:03:43.417Z,4.60
2024-03-15T06:04:15.594Z,4.70
2024-03-15T06:04:47.794Z,4.69
2024-03-15T06:05:20.045Z,4.55
2024-03-15T06:05:52.143Z,4.65
2024-03-15T06:06:24.233Z,4.77
2024-03-15T06:06:56.437Z,4.83
2024-03-15T06:07:28.561Z,4.90
2024-03-15T06:08:00.668Z,4.94
2024-03-15T06:08:33.273Z,5.00
2024-03-15T06:09:05.407Z,5.01
2024-03-15T06:09:37.740Z,4.98
2024-03-15T06:10:10.012Z,5.07
2024-03-15T06:10:42.098Z,5.14
2024-03-15T06:11:14.313Z,5.15
2024-03-15T06:11:46.418Z,5.16
2024-03-15T06:12:18.814Z,5.19
2024-03-15T06:12:51.077Z,5.18
2024-03-15T06:13:23.238Z,5.31
2024-03-15T06:13:55.375Z,5.45
2024-03-15T06:14:27.534Z,5.59
2024-03-15T06:14:59.664Z,5.70
2024-03-15T06:15:31.850Z,5.82
2024-03-15T06:16:04.350Z,5.94
2024-03-15T06:16:36.570Z,6.02
2024-03-15T06:17:08.720Z,6.03
2024-03-15T06:17:40.991Z,6.05
2024-03-15T06:18:13.207Z,6.10
2024-03-15T06:18:45.544Z,6.09
2024-03-15T06:19:17.811Z,6.20
2024-03-15T06:19:50.420Z,6.25
2024-03-15T06:20:22.584Z,6.33
2024-03-15T06:20:55.033Z,6.38
2024-03-15T06:21:27.181Z,6.53
2024-03-15T06:21:59.425Z,6.58
2024-03-15T06:22:31.612Z,6.63
2024-03-15T06:23:04.055Z,6.67
2024-03-15T06:23:42.692Z,6.69
2024-03-15T06:24:14.830Z,6.77
2024-03-15T06:24:47.044Z,6.91
2024-03-15T06:25:19.267Z,6.88
2024-03-15T06:25:51.392Z,6.98
2024-03-15T06:26:23.621Z,7.00
2024-03-15T06:26:57.730Z,7.02
2024-03-15T06:27:30.325Z,7.08
2024-03-15T06:28:02.677Z,7.17
2024-03-15T06:28:34.778Z,7.22
2024-03-15T06:29:06.893Z,7.36
2024-03-15T06:29:39.110Z,7.44
2024-03-15T06:30:11.563Z,7.49
2024-03-15T06:30:43.768Z,7.51
2024-03-15T06:31:15.909Z,7.71
2024-03-15T06:31:48.093Z,7.73
2024-03-15T06:32:20.220Z,7.79
2024-03-15T06:32:52.311Z,7.92
2024-03-15T06:33:24.625Z,8.07
2024-03-15T06:33:56.941Z,8.15
2024-03-15T06:34:29.165Z,8.22
2024-03-15T06:35:01.532Z,8.38
2024-03-15T06:35:36.411Z,8.53
2024-03-15T06:36:09.342Z,8.61
2024-03-15T06:36:41.576Z,8.42
2024-03-15T06:37:13.705Z,8.53
2024-03-15T06:37:46.051Z,8.52
2024-03-15T06:38:18.167Z,8.59
2024-03-15T06:38:50.438Z,8.63
2024-03-15T06:39:22.635Z,8.58
2024-03-15T06:39:54.969Z,8.60
2024-03-15T06:40:27.253Z,8.73
2024-03-15T06:40:59.343Z,8.57
2024-03-15T06:41:31.434Z,8.74
2024-03-15T06:42:03.568Z,8.89
2024-03-15T06:42:35.691Z,8.97
2024-03-15T06:43:07.836Z,9.16
2024-03-15T06:43:40.188Z,9.21
2024-03-15T06:44:12.331Z,9.33
2024-03-15T06:44:44.444Z,9.46
2024-03-15T06:45:16.891Z,9.59
2024-03-15T06:45:49.083Z,9.65
2024-03-15T06:46:21.697Z,9.77
2024-03-15T06:46:54.080Z,9.86
2024-03-15T06:47:26.318Z,10.03
2024-03-15T06:47:58.537Z,10.09
2024-03-15T06:48:30.714Z,10.22
2024-03-15T06:49:02.904Z,10.30
2024-03-15T06:49:35.033Z,10.38
2024-03-15T06:50:07.585Z,10.45
2024-03-15T06:50:39.848Z,10.53
2024-03-15T06:51:12.539Z,10.55
2024-03-15T06:51:44.652Z,10.66
2024-03-15T06:52:16.806Z,10.81
2024-03-15T06:52:49.211Z,10.90
2024-03-15T06:53:21.473Z,11.02
2024-03-15T06:53:53.642Z,10.95
2024-03-15T06:54:26.249Z,10.99
2024-03-15T06:54:58.496Z,10.96
2024-03-15T06:55:30.654Z,10.95
2024-03-15T06:56:03.112Z,11.06
2024-03-15T06:56:35.363Z,11.22
2024-03-15T06:57:07.462Z,11.18
2024-03-15T06:57:39.877Z,11.20
2024-03-15T06:58:15.988Z,11.26
2024-03-15T06:58:54.949Z,11.39
2024-03-15T06:59:27.011Z,11.52
2024-03-15T06:59:59.236Z,11.52
2024-03-15T07:00:31.494Z,11.62
2024-03-15T07:01:03.904Z,11.52
2024-03-15T07:01:36.124Z,11.50
2024-03-15T07:02:08.268Z,11.41
2024-03-15T07:02:40.460Z,11.41
2024-03-15T07:03:12.604Z,11.17
2024-03-15T07:03:44.882Z,10.87
2024-03-15T07:04:17.074Z,11.07
2024-03-15T07:04:49.222Z,11.26
2024-03-15T07:05:21.381Z,11.40
2024-03-15T07:05:53.508Z,11.39
2024-03-15T07:06:25.963Z,11.30
2024-03-15T07:06:58.190Z,11.21
2024-03-15T07:07:30.585Z,11.26
2024-03-15T07:08:02.835Z,11.19
2024-03-15T07:08:34.954Z,11.08
2024-03-15T07:09:07.399Z,10.97
2024-03-15T07:09:39.606Z,10.88
2024-03-15T07:10:11.948Z,10.70